Lumberton Municipal Airport Lumberton US
ICAO: KLBT
IATA: LBT
Category: Medium
Scheduled Services: No

Elevation: 126 ft
TransAlt. 18000 ft.

Airport Communications:
FAYETTEVILLE APP/DEP:133
ASOS:134.775
CTAF/UNICOM:122.8

KLBT Zoom In..

If you have problems with the map follow the link
https://www.worldairports.se/pages/airport.php?
ICAO=KLBT

Runways:

(A) RW 05 length 5502 ft width 150 ft
ILS 108.95 / hdg 53

(B) RW 13 length 5003 ft width 150 ft
---- / hdg 133

(C) RW 23 length 5502 ft width 150 ft
---- / hdg 233

(D) RW 31 length 5003 ft width 150 ft
---- / hdg 313

Location; KLBT
Day. 14 / Time. 11.08 Zulu
* Altimeter: 30.28
* Temperature: 10° c. 50°f.
* Wind from: 010° Speed 09 kn.
Dewpoint: 09° c.
Visibility: 10 Statute Miles.
Clouds: Broken 600 ft.
Clouds: Overcast 1000 ft.
Conditions: Light Rain.

KLBT 141108Z AUTO 01009KT 10SM -RA BKN006 OVC010 10/09 A3028 RMK AO2 P0000 T01000089


Wind From 010°
Speed 09 kn.

 
 
jpsmedia.com for Web Design worldairports.se 2018   terms of use